Time;durP1;ratioP1;P1;durP2;ratioP2;P2;SDS_P1;SDS_P2;PMS_P1;PMS_P2;Temp;Humidity;BMP_temperature;BMP_pressure;BME280_temperature;BME280_humidity;BME280_pressure;Samples;Min_cycle;Max_cycle;Signal;HPM_P1;HPM_P2
2022/07/02 00:00:36;;;;;;;22.50;8.85;;;;;;;19.85;64.06;102021.88;5051912;28;20037;-66
2022/07/02 00:03:01;;;;;;;15.95;8.63;;;;;;;20.06;63.76;102057.03;5052975;28;20534;-67
2022/07/02 00:05:31;;;;;;;19.58;9.27;;;;;;;20.16;63.99;102063.97;5053059;28;20033;-65
2022/07/02 00:07:58;;;;;;;20.08;9.40;;;;;;;20.11;63.63;102054.59;5052873;28;20088;-66
2022/07/02 00:10:25;;;;;;;15.18;8.85;;;;;;;20.21;64.03;102077.75;5053106;28;20041;-66
2022/07/02 00:12:50;;;;;;;18.27;8.27;;;;;;;20.15;63.98;102062.31;5052837;28;20049;-66
2022/07/02 00:15:16;;;;;;;12.88;7.90;;;;;;;20.21;63.69;102072.34;5053053;28;20039;-66
2022/07/02 00:17:43;;;;;;;13.02;7.15;;;;;;;20.15;64.10;102065.00;5050857;28;20496;-67
2022/07/02 00:20:09;;;;;;;14.65;9.05;;;;;;;20.20;64.51;102078.78;5052486;28;20048;-67
2022/07/02 00:22:35;;;;;;;15.70;10.50;;;;;;;20.20;64.62;102095.84;5052699;28;20069;-66
2022/07/02 00:25:01;;;;;;;18.58;9.45;;;;;;;20.11;64.27;102084.34;5052644;28;20036;-67
2022/07/02 00:27:28;;;;;;;17.40;9.50;;;;;;;20.08;64.67;102092.84;5052388;28;20033;-69
2022/07/02 00:29:56;;;;;;;18.95;8.57;;;;;;;20.05;65.53;102093.22;5052600;28;20573;-69
2022/07/02 00:32:24;;;;;;;15.18;7.28;;;;;;;19.96;65.31;102080.03;5051569;28;20051;-69
2022/07/02 00:34:51;;;;;;;16.42;8.30;;;;;;;19.95;64.93;102075.63;5052412;28;20043;-68
2022/07/02 00:37:17;;;;;;;22.95;9.73;;;;;;;20.07;64.86;102085.75;5051173;28;20128;-68
2022/07/02 00:39:43;;;;;;;10.30;8.60;;;;;;;19.89;64.84;102063.72;5052502;28;20545;-68
2022/07/02 00:42:10;;;;;;;17.15;9.15;;;;;;;19.96;65.27;102080.88;5052389;28;20033;-66
2022/07/02 00:44:35;;;;;;;20.15;7.80;;;;;;;19.95;65.24;102084.59;5052276;28;20479;-67
2022/07/02 00:47:09;;;;;;;13.40;9.10;;;;;;;19.89;65.40;102074.53;5052385;28;20051;-69
2022/07/02 00:49:36;;;;;;;13.85;8.13;;;;;;;19.91;65.46;102086.00;5052189;28;20063;-66
2022/07/02 00:52:03;;;;;;;11.43;7.93;;;;;;;19.84;65.75;102071.56;5052435;28;20385;-66
2022/07/02 00:54:29;;;;;;;18.10;8.50;;;;;;;19.86;65.56;102074.09;5052082;28;20044;-65
2022/07/02 00:56:55;;;;;;;13.20;8.20;;;;;;;19.87;66.20;102083.88;5052419;28;20041;-69
2022/07/02 00:59:25;;;;;;;11.32;7.78;;;;;;;19.83;66.02;102071.78;5052353;28;20072;-66
2022/07/02 01:01:51;;;;;;;12.70;8.25;;;;;;;19.84;66.12;102079.69;5051936;28;20511;-67
2022/07/02 01:04:17;;;;;;;14.85;8.35;;;;;;;19.79;66.03;102082.13;5052084;28;20041;-67
2022/07/02 01:06:44;;;;;;;9.77;7.75;;;;;;;19.75;66.26;102080.84;5052735;28;20075;-68
2022/07/02 01:12:01;;;;;;;20.80;8.70;;;;;;;19.82;66.21;102092.56;5058452;28;20045;-66
2022/07/02 01:14:27;;;;;;;19.83;7.88;;;;;;;19.51;66.38;102046.84;5058155;28;20041;-65
2022/07/02 01:16:54;;;;;;;17.20;8.30;;;;;;;19.75;66.66;102097.91;5057753;28;20037;-70
2022/07/02 01:19:21;;;;;;;13.88;8.48;;;;;;;19.79;67.20;102093.78;5058822;28;20032;-65
2022/07/02 01:22:12;;;;;;;15.32;8.57;;;;;;;19.82;66.62;102097.97;5057605;28;20403;-69
2022/07/02 01:24:38;;;;;;;12.77;8.32;;;;;;;19.58;67.17;102068.56;5057258;28;20036;-66
2022/07/02 01:27:04;;;;;;;14.95;8.25;;;;;;;19.76;67.20;102093.34;5057974;28;20040;-67
2022/07/02 01:29:29;;;;;;;9.48;7.13;;;;;;;19.65;67.43;102074.88;5059549;28;20037;-65
2022/07/02 01:31:55;;;;;;;10.50;8.02;;;;;;;19.72;66.94;102092.03;5061414;28;20036;-66
2022/07/02 01:34:20;;;;;;;11.20;8.23;;;;;;;19.71;67.23;102091.22;5060943;28;20036;-68
2022/07/02 01:36:46;;;;;;;14.00;7.78;;;;;;;19.68;67.37;102090.75;5061484;28;20064;-66
2022/07/02 01:39:11;;;;;;;16.65;8.57;;;;;;;19.71;67.26;102090.38;5058277;28;20076;-70
2022/07/02 01:41:40;;;;;;;16.20;8.93;;;;;;;19.66;67.29;102081.97;5056728;28;20407;-67
2022/07/02 01:44:09;;;;;;;11.45;7.75;;;;;;;19.75;67.03;102083.56;5055645;28;20036;-68
2022/07/02 01:46:36;;;;;;;14.88;8.27;;;;;;;19.74;66.55;102079.16;5055741;28;20029;-68
2022/07/02 01:49:02;;;;;;;11.75;8.35;;;;;;;19.89;66.37;102098.88;5055680;28;20099;-67
2022/07/02 01:51:27;;;;;;;13.13;8.38;;;;;;;19.82;66.50;102084.44;5055476;28;20120;-69
2022/07/02 01:53:53;;;;;;;14.82;7.63;;;;;;;19.91;66.15;102096.81;5055272;28;20043;-66
2022/07/02 01:56:18;;;;;;;12.20;7.35;;;;;;;19.90;65.80;102100.53;5054120;28;20032;-70
2022/07/02 01:58:44;;;;;;;18.15;8.48;;;;;;;19.88;66.39;102090.94;5055450;28;20555;-66
2022/07/02 02:01:10;;;;;;;17.05;10.32;;;;;;;19.90;66.16;102092.44;5055501;28;20078;-66
2022/07/02 02:03:36;;;;;;;14.23;8.23;;;;;;;19.90;66.29;102088.88;5055343;28;20065;-67
2022/07/02 02:06:01;;;;;;;13.60;8.18;;;;;;;19.96;66.31;102099.81;5054295;28;20127;-63
2022/07/02 02:08:27;;;;;;;10.57;6.93;;;;;;;20.00;65.38;102094.84;5055891;28;20118;-69
2022/07/02 02:10:52;;;;;;;11.63;7.70;;;;;;;19.82;66.78;102065.53;5055331;28;20504;-68
2022/07/02 02:13:18;;;;;;;13.90;7.65;;;;;;;19.99;66.05;102087.75;5055183;28;20411;-68
2022/07/02 02:15:43;;;;;;;9.23;7.03;;;;;;;19.98;66.19;102081.50;5055166;28;20072;-66
2022/07/02 02:18:09;;;;;;;10.52;7.22;;;;;;;20.06;66.11;102080.53;5054896;28;20529;-66
2022/07/02 02:20:34;;;;;;;15.82;9.13;;;;;;;20.06;65.47;102084.09;5054848;28;20039;-67
2022/07/02 02:23:04;;;;;;;12.48;8.23;;;;;;;20.15;65.61;102089.34;5054811;28;20049;-67
2022/07/02 02:25:31;;;;;;;23.77;13.85;;;;;;;20.16;65.88;102085.63;5054908;28;20037;-67
2022/07/02 02:27:57;;;;;;;13.40;8.50;;;;;;;20.19;66.02;102080.66;5054932;28;20598;-66
2022/07/02 02:30:22;;;;;;;9.70;6.88;;;;;;;20.21;65.74;102086.72;5054995;28;20029;-67
2022/07/02 02:32:48;;;;;;;16.33;9.10;;;;;;;20.16;65.53;102064.81;5054858;28;20040;-69
2022/07/02 02:35:13;;;;;;;12.00;7.82;;;;;;;20.13;65.47;102062.50;5054693;28;20071;-67
2022/07/02 02:37:39;;;;;;;13.57;9.18;;;;;;;20.19;65.13;102060.88;5054611;28;20032;-65
2022/07/02 02:40:05;;;;;;;13.93;9.38;;;;;;;20.32;65.08;102077.25;5054671;28;20529;-67
2022/07/02 02:42:31;;;;;;;17.20;10.95;;;;;;;20.34;65.04;102080.59;5054604;28;20040;-66
2022/07/02 02:44:56;;;;;;;14.18;8.27;;;;;;;20.36;64.75;102073.13;5054568;28;20033;-68
2022/07/02 02:47:22;;;;;;;13.20;7.53;;;;;;;20.37;64.89;102064.81;5054276;28;20037;-67
2022/07/02 02:49:48;;;;;;;12.65;7.47;;;;;;;20.45;65.04;102077.38;5054196;28;20037;-69
2022/07/02 02:52:13;;;;;;;8.63;7.10;;;;;;;20.38;64.77;102060.22;5054459;28;20553;-65
2022/07/02 02:54:39;;;;;;;11.43;8.27;;;;;;;21.04;62.87;102058.00;5053089;28;20449;-68
2022/07/02 02:57:05;;;;;;;13.63;8.45;;;;;;;22.82;58.04;102066.53;5053211;28;20037;-66
2022/07/02 02:59:30;;;;;;;13.80;7.07;;;;;;;25.18;51.09;102066.25;5054359;28;20546;-68
2022/07/02 03:01:56;;;;;;;12.13;7.35;;;;;;;26.99;45.76;102054.03;5054620;28;20064;-68
2022/07/02 03:04:21;;;;;;;10.15;7.60;;;;;;;28.36;42.17;102056.66;5054950;28;20411;-67
2022/07/02 03:06:51;;;;;;;9.65;8.65;;;;;;;29.19;40.59;102052.88;5054016;28;20037;-68
2022/07/02 03:09:20;;;;;;;12.05;7.13;;;;;;;29.82;38.02;102034.94;5054353;28;20052;-66
2022/07/02 03:11:46;;;;;;;10.50;5.57;;;;;;;30.10;36.77;102036.59;5054415;28;20036;-66
2022/07/02 03:14:11;;;;;;;6.88;5.90;;;;;;;30.37;36.28;102044.78;5054142;28;20559;-67
2022/07/02 03:16:37;;;;;;;11.45;6.00;;;;;;;30.39;36.02;102042.59;5052700;28;20037;-66
2022/07/02 03:19:02;;;;;;;9.02;5.55;;;;;;;30.48;35.59;102035.50;5053773;28;20032;-67
2022/07/02 03:21:28;;;;;;;7.72;4.97;;;;;;;30.71;35.39;102056.28;5053650;28;20047;-69
2022/07/02 03:23:53;;;;;;;10.13;5.13;;;;;;;30.89;34.87;102046.75;5053656;28;20041;-68
2022/07/02 03:26:19;;;;;;;6.80;5.15;;;;;;;31.11;34.69;102052.91;5053806;28;20116;-66
2022/07/02 03:28:44;;;;;;;8.32;4.60;;;;;;;31.19;34.54;102056.25;5053730;28;20033;-68
2022/07/02 03:31:10;;;;;;;6.78;4.60;;;;;;;31.20;33.84;102053.22;5053758;28;20156;-66
2022/07/02 03:33:35;;;;;;;14.18;6.63;;;;;;;31.27;34.07;102047.50;5053673;28;20029;-68
2022/07/02 03:36:01;;;;;;;10.13;5.93;;;;;;;31.40;34.08;102052.47;5053470;28;20041;-65
2022/07/02 03:38:27;;;;;;;9.23;5.68;;;;;;;31.33;34.08;102041.72;5053740;28;20033;-69
2022/07/02 03:40:52;;;;;;;14.68;5.57;;;;;;;31.27;33.87;102034.56;5053615;28;20071;-66
2022/07/02 03:43:18;;;;;;;7.80;5.65;;;;;;;31.61;33.82;102047.84;5053592;28;20446;-66
2022/07/02 03:45:43;;;;;;;7.72;5.32;;;;;;;31.71;33.47;102043.22;5052468;28;20059;-67
2022/07/02 03:48:09;;;;;;;10.93;4.65;;;;;;;31.76;33.05;102031.38;5053439;28;20068;-65
2022/07/02 03:50:40;;;;;;;13.05;5.95;;;;;;;31.84;33.42;102041.03;5035622;28;20484;-67
2022/07/02 03:53:06;;;;;;;7.75;5.07;;;;;;;31.90;33.00;102042.69;5052707;28;20037;-65
2022/07/02 03:55:31;;;;;;;11.23;4.93;;;;;;;31.84;32.97;102013.50;5053530;28;20044;-66
2022/07/02 03:57:57;;;;;;;7.40;5.25;;;;;;;31.91;32.68;102031.38;5053772;28;20047;-66
2022/07/02 04:00:22;;;;;;;10.73;5.30;;;;;;;32.11;32.59;102047.09;5053685;28;20472;-66
2022/07/02 04:02:48;;;;;;;11.95;5.38;;;;;;;31.96;32.78;102033.31;5053143;28;20484;-68
2022/07/02 04:05:13;;;;;;;7.40;5.30;;;;;;;31.68;32.74;102049.25;5052799;28;20037;-70
2022/07/02 04:07:42;;;;;;;7.53;5.20;;;;;;;31.74;33.05;102044.59;5053141;28;20053;-68
2022/07/02 04:10:08;;;;;;;8.25;5.28;;;;;;;31.74;32.92;102026.13;5053366;28;20079;-67
2022/07/02 04:12:33;;;;;;;11.43;5.50;;;;;;;31.98;32.47;102044.88;5052695;28;20497;-68
2022/07/02 04:14:59;;;;;;;10.20;4.60;;;;;;;31.93;32.81;102034.69;5056149;28;20031;-66
2022/07/02 04:17:25;;;;;;;10.98;4.97;;;;;;;32.08;32.89;102033.84;5058027;28;20028;-67
2022/07/02 04:19:50;;;;;;;9.20;5.05;;;;;;;32.49;31.91;102042.13;5055267;28;20025;-67
2022/07/02 04:22:16;;;;;;;9.98;5.40;;;;;;;32.62;32.00;102036.00;5055729;28;20029;-66
2022/07/02 04:24:43;;;;;;;;;;;;;;;33.43;30.96;102045.94;5062054;28;20032;-67
2022/07/02 04:27:09;;;;;;;7.40;5.45;;;;;;;33.18;30.94;102041.34;5055234;28;19943;-69
2022/07/02 04:29:34;;;;;;;14.20;5.28;;;;;;;32.87;31.25;102033.19;5053468;28;20078;-66
2022/07/02 04:32:00;;;;;;;10.77;7.10;;;;;;;32.74;31.46;102039.31;5053120;28;20033;-69
2022/07/02 04:34:25;;;;;;;9.63;7.13;;;;;;;32.65;31.80;102033.50;5053147;28;20396;-67
2022/07/02 04:36:51;;;;;;;13.18;6.22;;;;;;;32.71;32.15;102036.28;5053234;28;20071;-68
2022/07/02 04:39:17;;;;;;;15.05;6.22;;;;;;;32.81;31.31;102045.38;5054668;28;20021;-66
2022/07/02 04:41:42;;;;;;;8.32;5.10;;;;;;;32.56;31.91;102040.72;5054762;28;20051;-69
2022/07/02 04:44:08;;;;;;;11.60;5.95;;;;;;;32.25;32.26;102031.69;5055151;28;20557;-70
2022/07/02 04:46:34;;;;;;;13.85;5.78;;;;;;;32.11;32.20;102044.34;5053426;28;20037;-66
2022/07/02 04:48:59;;;;;;;12.98;6.63;;;;;;;32.00;32.69;101985.63;5052161;28;20040;-67
2022/07/02 04:51:25;;;;;;;15.85;6.28;;;;;;;32.63;31.61;102023.88;5052589;28;20049;-69
2022/07/02 04:53:50;;;;;;;10.07;5.70;;;;;;;32.52;31.76;102030.53;5051093;28;20511;-69
2022/07/02 04:56:16;;;;;;;8.13;6.18;;;;;;;32.31;32.02;102032.50;5052252;28;20116;-68
2022/07/02 04:58:41;;;;;;;9.57;5.38;;;;;;;32.44;32.38;102040.22;5052073;28;20480;-67
2022/07/02 05:01:06;;;;;;;6.97;5.22;;;;;;;32.65;31.49;102019.72;5052196;28;20040;-67
2022/07/02 05:03:32;;;;;;;14.48;5.43;;;;;;;32.75;31.62;102051.16;5051667;28;20058;-67
2022/07/02 05:05:58;;;;;;;15.40;5.55;;;;;;;32.46;32.13;102050.94;5052026;28;20037;-68
2022/07/02 05:08:26;;;;;;;11.18;6.18;;;;;;;32.12;32.03;102021.19;5050291;28;20527;-67
2022/07/02 05:10:55;;;;;;;15.75;6.28;;;;;;;32.10;32.60;102050.97;5052102;28;20080;-67
2022/07/02 05:13:22;;;;;;;7.15;5.07;;;;;;;32.43;33.04;102054.28;5050704;28;20590;-68
2022/07/02 05:15:49;;;;;;;7.80;5.72;;;;;;;32.60;32.13;102054.78;5051920;28;20037;-65
2022/07/02 05:18:15;;;;;;;8.60;5.85;;;;;;;32.44;32.32;102061.44;5053822;28;20068;-67
2022/07/02 05:20:40;;;;;;;9.70;5.20;;;;;;;31.82;32.99;102065.28;5055181;28;20044;-68
2022/07/02 05:23:06;;;;;;;10.88;6.68;;;;;;;31.40;33.74;102064.31;5055306;28;20033;-67
2022/07/02 05:25:32;;;;;;;7.05;5.15;;;;;;;30.95;34.67;102056.69;5053368;28;20512;-67
2022/07/02 05:27:58;;;;;;;10.40;5.70;;;;;;;30.62;35.80;102062.53;5053760;28;20511;-64
2022/07/02 05:30:23;;;;;;;9.27;5.50;;;;;;;29.49;37.81;102059.84;5051354;28;20033;-68
2022/07/02 05:32:49;;;;;;;11.73;5.60;;;;;;;28.35;39.63;102052.25;5052434;28;20053;-67
2022/07/02 05:35:14;;;;;;;21.95;6.47;;;;;;;27.37;41.90;102059.72;5051971;28;20471;-69
2022/07/02 05:37:40;;;;;;;10.05;5.35;;;;;;;26.65;43.81;102051.06;5050469;28;20033;-65
2022/07/02 05:40:06;;;;;;;11.30;5.90;;;;;;;26.20;44.86;102043.41;5051813;28;20033;-66
2022/07/02 05:42:31;;;;;;;14.70;6.25;;;;;;;26.10;45.35;102054.06;5051758;28;20128;-66
2022/07/02 05:44:57;;;;;;;7.53;5.60;;;;;;;26.06;45.72;102052.06;5051601;28;20040;-65
2022/07/02 05:47:23;;;;;;;11.43;6.50;;;;;;;25.92;45.95;102045.97;5051602;28;20033;-67
2022/07/02 05:49:48;;;;;;;13.02;5.78;;;;;;;25.86;46.20;102041.44;5052013;28;20045;-67
2022/07/02 05:52:17;;;;;;;8.65;6.03;;;;;;;26.03;46.02;102058.81;5034428;28;20480;-65
2022/07/02 05:54:43;;;;;;;13.27;6.28;;;;;;;25.93;45.82;102043.00;5052160;28;20037;-65
2022/07/02 05:57:09;;;;;;;14.48;7.03;;;;;;;26.02;45.80;102046.25;5051603;28;20068;-66
2022/07/02 05:59:36;;;;;;;9.15;5.75;;;;;;;26.18;46.28;102061.09;5052515;28;20476;-66
2022/07/02 06:02:03;;;;;;;11.35;4.97;;;;;;;26.31;45.04;102060.03;5053266;28;20075;-68
2022/07/02 06:04:28;;;;;;;9.83;4.87;;;;;;;26.34;45.62;102054.16;5053164;28;20032;-67
2022/07/02 06:09:42;;;;;;;9.73;5.03;;;;;;;26.36;44.70;102027.44;5051517;28;20350;-69
2022/07/02 06:12:08;;;;;;;13.38;5.53;;;;;;;26.34;44.91;102027.66;5049837;28;20494;-67
2022/07/02 06:14:33;;;;;;;9.48;4.97;;;;;;;26.42;44.26;102034.66;5051282;28;20513;-67
2022/07/02 06:16:59;;;;;;;7.35;5.60;;;;;;;26.51;46.03;102030.50;5055015;28;20033;-67
2022/07/02 06:19:25;;;;;;;11.38;5.75;;;;;;;26.53;44.20;102029.19;5054773;28;20127;-67
2022/07/02 06:21:50;;;;;;;13.50;5.10;;;;;;;26.36;44.64;102019.22;5055093;28;20515;-66
2022/07/02 06:24:15;;;;;;;11.15;5.55;;;;;;;26.31;45.40;102024.53;5054654;28;20073;-68
2022/07/02 06:26:41;;;;;;;23.88;5.90;;;;;;;26.38;44.28;102033.50;5053425;28;20447;-67
2022/07/02 06:29:07;;;;;;;12.02;4.53;;;;;;;26.18;44.75;102001.84;5054419;28;20032;-67
2022/07/02 06:31:32;;;;;;;11.35;4.70;;;;;;;26.14;43.44;102008.84;5055140;28;20041;-67
2022/07/02 06:33:58;;;;;;;11.68;4.20;;;;;;;26.22;43.14;102010.41;5053446;28;20037;-66
2022/07/02 06:36:24;;;;;;;11.32;4.15;;;;;;;26.12;43.03;102000.06;5054666;28;20060;-66
2022/07/02 06:38:51;;;;;;;10.85;4.93;;;;;;;26.18;43.88;102006.47;5054739;28;20475;-68
2022/07/02 06:44:01;;;;;;;6.55;4.40;;;;;;;26.41;42.16;102022.09;5054686;28;20037;-68
2022/07/02 06:46:27;;;;;;;6.47;3.95;;;;;;;26.21;42.68;101985.00;5054392;28;20041;-67
2022/07/02 06:48:53;;;;;;;11.45;4.35;;;;;;;26.49;41.90;102018.97;5053078;28;20040;-68
2022/07/02 06:51:19;;;;;;;11.30;3.85;;;;;;;26.40;41.70;101993.09;5054458;28;20514;-65
2022/07/02 06:53:45;;;;;;;7.10;4.05;;;;;;;26.59;40.76;101997.34;5054563;28;20044;-66
2022/07/02 06:56:11;;;;;;;4.30;3.17;;;;;;;26.64;38.00;101994.75;5055564;28;20033;-67
2022/07/02 06:58:36;;;;;;;9.70;3.28;;;;;;;26.53;38.96;101965.53;5053230;28;20480;-69
2022/07/02 07:01:02;;;;;;;7.53;2.80;;;;;;;26.88;38.40;102011.91;5054261;28;20408;-69
2022/07/02 07:03:28;;;;;;;6.65;2.88;;;;;;;26.94;39.45;102010.16;5069545;28;20025;-69
2022/07/02 07:05:53;;;;;;;5.03;3.42;;;;;;;26.58;39.07;101935.56;5054136;28;20503;-66
2022/07/02 07:08:19;;;;;;;7.10;3.15;;;;;;;26.95;38.82;101965.34;5054840;28;20064;-69
2022/07/02 07:10:45;;;;;;;9.27;3.90;;;;;;;27.37;38.76;102004.19;5036588;28;20423;-67
2022/07/02 07:13:11;;;;;;;7.03;3.15;;;;;;;27.43;37.62;102004.03;5053974;28;20028;-65
2022/07/02 07:15:36;;;;;;;6.72;3.42;;;;;;;27.38;38.14;101995.75;5052545;28;20079;-68
2022/07/02 07:18:02;;;;;;;8.75;3.67;;;;;;;27.11;38.42;101961.84;5052469;28;20039;-67
2022/07/02 07:20:29;;;;;;;6.22;4.78;;;;;;;27.48;38.71;102010.72;5053893;28;20029;-66
2022/07/02 07:22:57;;;;;;;8.23;3.80;;;;;;;27.35;38.13;101984.47;5053797;28;20040;-67
2022/07/02 07:25:23;;;;;;;12.32;3.20;;;;;;;27.26;37.12;101975.81;5053841;28;20035;-69
2022/07/02 07:27:53;;;;;;;7.93;3.80;;;;;;;27.32;37.43;101995.91;5053683;28;20553;-65
2022/07/02 07:30:19;;;;;;;21.45;5.10;;;;;;;27.31;37.78;102005.19;5054051;28;20033;-69
2022/07/02 07:32:45;;;;;;;5.43;3.30;;;;;;;27.33;38.56;102014.78;5053848;28;20033;-70
2022/07/02 07:35:10;;;;;;;6.82;3.83;;;;;;;27.46;38.40;102009.00;5053527;28;20081;-70
2022/07/02 07:37:36;;;;;;;5.45;3.75;;;;;;;27.59;38.39;102007.06;5053417;28;20024;-65
2022/07/02 07:40:03;;;;;;;8.75;5.18;;;;;;;27.65;37.65;102008.84;5053831;28;20446;-67
2022/07/02 07:42:29;;;;;;;6.03;3.72;;;;;;;27.79;38.14;102010.22;5052744;28;20029;-66
2022/07/02 07:44:54;;;;;;;8.10;3.50;;;;;;;27.67;37.23;101999.31;5053504;28;20400;-67
2022/07/02 07:47:20;;;;;;;4.30;3.55;;;;;;;27.73;37.45;102020.22;5053304;28;20036;-68
2022/07/02 07:49:45;;;;;;;6.18;3.35;;;;;;;27.60;37.02;102000.53;5053057;28;20122;-68
2022/07/02 07:52:11;;;;;;;7.50;4.07;;;;;;;27.46;36.81;101999.97;5052976;28;20036;-65
2022/07/02 07:54:37;;;;;;;12.88;4.38;;;;;;;27.50;37.00;102003.09;5053398;28;20041;-67
2022/07/02 07:57:04;;;;;;;9.48;4.70;;;;;;;27.61;37.20;102013.13;5053141;28;20048;-69
2022/07/02 07:59:29;;;;;;;9.70;5.53;;;;;;;27.45;37.27;101992.84;5052013;28;20413;-68
2022/07/02 08:01:55;;;;;;;8.82;4.32;;;;;;;27.66;37.75;102005.03;5053039;28;20416;-66
2022/07/02 08:04:20;;;;;;;9.65;4.57;;;;;;;27.70;37.54;102001.56;5052929;28;20041;-71
2022/07/02 08:06:49;;;;;;;6.95;4.15;;;;;;;27.83;36.59;102011.38;5052858;28;20029;-66
2022/07/02 08:09:19;;;;;;;4.40;3.63;;;;;;;27.86;35.34;102010.88;5052847;28;20048;-67
2022/07/02 08:11:45;;;;;;;5.13;3.80;;;;;;;27.89;33.01;102010.38;5052688;28;20128;-68
2022/07/02 08:14:10;;;;;;;7.30;3.97;;;;;;;27.86;34.63;102002.66;5052776;28;20419;-68
2022/07/02 08:16:36;;;;;;;7.85;4.05;;;;;;;27.87;34.06;101982.41;5051462;28;20458;-68
2022/07/02 08:19:01;;;;;;;6.15;4.50;;;;;;;28.02;35.12;101996.34;5052754;28;20455;-67
2022/07/02 08:21:27;;;;;;;9.70;5.38;;;;;;;28.17;35.59;102000.44;5052604;28;20044;-67
2022/07/02 08:23:52;;;;;;;12.50;4.25;;;;;;;28.30;35.51;102009.16;5052745;28;20033;-70
2022/07/02 08:26:17;;;;;;;11.20;4.82;;;;;;;28.36;34.91;102004.59;5051278;28;20474;-67
2022/07/02 08:28:44;;;;;;;8.50;3.90;;;;;;;28.52;34.25;102014.69;5052457;28;20049;-66
2022/07/02 08:31:09;;;;;;;6.78;3.60;;;;;;;28.44;35.03;102006.91;5051098;28;20082;-66
2022/07/02 08:33:35;;;;;;;5.85;3.85;;;;;;;28.35;34.28;101989.25;5052151;28;20093;-66
2022/07/02 08:36:01;;;;;;;11.32;4.65;;;;;;;28.47;34.38;102003.66;5052597;28;20066;-70
2022/07/02 08:38:26;;;;;;;5.28;3.35;;;;;;;28.59;33.63;102012.59;5052051;28;20545;-68
2022/07/02 08:40:52;;;;;;;8.30;3.08;;;;;;;28.65;33.77;102014.34;5052198;28;20039;-68
2022/07/02 08:43:24;;;;;;;6.13;3.00;;;;;;;28.69;32.93;102004.53;5052290;28;20431;-70
2022/07/02 08:45:52;;;;;;;8.13;3.95;;;;;;;28.73;32.89;102026.78;5051810;28;20029;-68
2022/07/02 08:48:20;;;;;;;7.78;3.60;;;;;;;28.64;32.75;102020.91;5052094;28;20072;-69
2022/07/02 08:50:49;;;;;;;5.85;4.05;;;;;;;28.49;33.00;102001.50;5051850;28;20029;-67
2022/07/02 08:53:16;;;;;;;7.68;3.75;;;;;;;28.67;32.86;102014.09;5052541;28;20037;-66
2022/07/02 08:55:43;;;;;;;5.03;3.85;;;;;;;28.77;33.96;102008.72;5053014;28;20071;-66
2022/07/02 08:58:11;;;;;;;6.88;4.85;;;;;;;28.89;32.26;102003.97;5051546;28;20056;-67
2022/07/02 09:00:38;;;;;;;9.23;4.82;;;;;;;29.08;32.88;102015.47;5050622;28;20116;-67
2022/07/02 09:03:05;;;;;;;6.93;4.53;;;;;;;29.14;31.72;102002.63;5051457;28;20041;-67
2022/07/02 09:05:31;;;;;;;9.23;4.38;;;;;;;29.29;32.52;102014.63;5050308;28;20071;-67
2022/07/02 09:08:00;;;;;;;13.27;5.43;;;;;;;29.28;32.87;102003.91;5050205;28;20080;-67
2022/07/02 09:10:27;;;;;;;11.35;5.18;;;;;;;29.32;32.98;102012.44;5051759;28;20037;-67
2022/07/02 09:12:54;;;;;;;10.50;4.20;;;;;;;29.24;31.69;101997.28;5051999;28;20462;-68
2022/07/02 09:15:20;;;;;;;6.70;4.07;;;;;;;29.35;31.55;101989.97;5050429;28;20033;-66
2022/07/02 09:17:45;;;;;;;8.80;4.88;;;;;;;29.48;32.61;101992.31;5051880;28;20056;-68
2022/07/02 09:20:12;;;;;;;9.15;4.65;;;;;;;29.56;33.24;101989.13;5050680;28;20071;-66
2022/07/02 09:22:41;;;;;;;12.70;4.82;;;;;;;29.49;33.98;101980.25;5051824;28;20029;-65
2022/07/02 09:25:16;;;;;;;7.65;5.28;;;;;;;29.39;33.87;101982.88;5051890;28;20025;-68
2022/07/02 09:27:46;;;;;;;8.52;5.03;;;;;;;29.09;33.79;101972.41;5051791;28;20471;-69
2022/07/02 09:30:16;;;;;;;9.85;4.93;;;;;;;29.00;33.60;101969.28;5051564;28;20052;-68
2022/07/02 09:32:44;;;;;;;9.55;5.10;;;;;;;28.96;34.51;101979.94;5051934;28;20119;-66
2022/07/02 09:35:20;;;;;;;10.00;4.70;;;;;;;28.84;33.84;101959.19;5051929;28;20041;-67
2022/07/02 09:37:48;;;;;;;17.52;4.88;;;;;;;28.92;34.39;101972.50;5051683;28;20561;-69
2022/07/02 09:40:15;;;;;;;6.95;4.40;;;;;;;29.03;34.34;101974.25;5051705;28;20033;-67
2022/07/02 09:42:46;;;;;;;8.10;4.68;;;;;;;29.23;33.44;101982.72;5051392;28;20048;-69
2022/07/02 09:45:13;;;;;;;9.60;5.25;;;;;;;29.37;32.55;101979.56;5050382;28;20052;-68
2022/07/02 09:47:49;;;;;;;12.68;8.90;;;;;;;29.43;32.83;101970.28;5051515;28;20071;-67
2022/07/02 09:50:17;;;;;;;8.45;5.28;;;;;;;29.53;32.94;101973.19;5051843;28;20028;-68
2022/07/02 09:52:51;;;;;;;11.05;5.47;;;;;;;29.58;32.74;101963.06;5054119;28;20044;-65
2022/07/02 09:55:21;;;;;;;7.38;4.22;;;;;;;29.57;32.47;101971.56;5055157;28;20047;-66
2022/07/02 09:57:50;;;;;;;9.52;4.35;;;;;;;29.51;31.93;101958.88;5055249;28;20127;-66
2022/07/02 10:00:17;;;;;;;13.00;8.73;;;;;;;29.44;32.69;101947.25;5055244;28;20040;-65
2022/07/02 10:02:43;;;;;;;7.03;3.92;;;;;;;29.53;32.22;101962.19;5053890;28;20086;-65
2022/07/02 10:05:08;;;;;;;14.70;5.25;;;;;;;29.25;32.32;101911.97;5055253;28;20037;-67
2022/07/02 10:07:34;;;;;;;4.88;3.75;;;;;;;29.37;32.59;101925.50;5087080;28;20130;-68
2022/07/02 10:10:05;;;;;;;7.80;3.88;;;;;;;29.46;32.35;101934.13;5054876;28;20044;-65
2022/07/02 10:12:30;;;;;;;8.73;4.10;;;;;;;29.45;31.38;101935.22;5055150;28;20048;-66
2022/07/02 10:14:58;;;;;;;14.50;5.53;;;;;;;29.30;32.51;101931.22;5055033;28;20403;-67
2022/07/02 10:17:24;;;;;;;9.43;4.68;;;;;;;29.20;32.55;101941.22;5054913;28;20033;-64
2022/07/02 10:19:51;;;;;;;8.80;4.30;;;;;;;28.88;32.77;101906.34;5036942;28;20063;-68
2022/07/02 10:22:18;;;;;;;7.75;3.95;;;;;;;29.04;32.34;101932.03;5054690;28;20068;-69
2022/07/02 10:24:43;;;;;;;5.15;3.83;;;;;;;29.08;32.53;101943.31;5055178;28;20045;-69
2022/07/02 10:27:10;;;;;;;14.57;4.20;;;;;;;28.95;32.33;101920.69;5055119;28;20029;-66
2022/07/02 10:29:38;;;;;;;8.63;3.67;;;;;;;28.90;31.43;101920.63;5054784;28;20407;-67
2022/07/02 10:32:29;;;;;;;8.52;5.25;;;;;;;28.93;32.19;101924.78;5057722;28;20059;-69
2022/07/02 10:35:08;;;;;;;7.50;4.70;;;;;;;28.99;32.04;101918.28;5055122;28;20029;-68
2022/07/02 10:37:37;;;;;;;7.30;4.38;;;;;;;29.00;31.93;101914.44;5057222;28;20123;-69
2022/07/02 10:40:03;;;;;;;9.25;3.90;;;;;;;29.01;31.52;101904.28;5054737;28;20048;-66
2022/07/02 10:42:44;;;;;;;7.70;4.20;;;;;;;28.99;32.09;101888.09;5054521;28;20037;-67
2022/07/02 10:45:15;;;;;;;8.00;4.03;;;;;;;29.17;31.48;101909.66;5054315;28;20467;-66
2022/07/02 10:48:02;;;;;;;9.85;4.53;;;;;;;29.16;31.41;101913.50;5052845;28;20090;-69
2022/07/02 10:50:39;;;;;;;5.00;3.83;;;;;;;29.10;31.78;101911.78;5054271;28;20040;-65
2022/07/02 10:53:11;;;;;;;;;;;;;;;29.22;32.12;101912.47;5054630;28;20032;-66
2022/07/02 10:55:37;;;;;;;5.88;4.80;;;;;;;29.22;31.29;101911.66;5054032;28;19964;-68
2022/07/02 10:58:06;;;;;;;6.07;3.90;;;;;;;29.23;31.68;101914.13;5054225;28;20029;-66
2022/07/02 11:00:33;;;;;;;6.60;3.70;;;;;;;29.15;30.88;101909.09;5054034;28;20060;-68
2022/07/02 11:03:09;;;;;;;8.10;4.10;;;;;;;29.17;31.46;101917.91;5054071;28;20496;-68
2022/07/02 11:05:35;;;;;;;7.40;4.22;;;;;;;29.07;30.75;101893.13;5053963;28;20274;-66
2022/07/02 11:08:01;;;;;;;8.27;3.55;;;;;;;29.09;29.87;101888.19;5053503;28;20056;-66
2022/07/02 11:10:31;;;;;;;9.23;4.22;;;;;;;29.18;30.96;101900.34;5053918;28;20037;-65
2022/07/02 11:13:01;;;;;;;5.68;4.03;;;;;;;29.18;30.45;101894.84;5053703;28;20135;-66
2022/07/02 11:15:36;;;;;;;7.80;4.25;;;;;;;29.16;30.04;101877.00;5054003;28;20037;-66
2022/07/02 11:18:07;;;;;;;6.63;3.30;;;;;;;29.33;28.39;101901.59;5053784;28;20388;-68
2022/07/02 11:20:35;;;;;;;10.23;5.07;;;;;;;29.32;28.79;101894.44;5053570;28;20480;-67
2022/07/02 11:23:00;;;;;;;;;;;;;;;29.43;29.63;101890.69;5054231;28;20083;-68
2022/07/02 11:25:29;;;;;;;35.03;6.10;;;;;;;29.39;28.88;101892.31;5053290;28;19917;-69
2022/07/02 11:27:56;;;;;;;10.02;4.85;;;;;;;29.40;29.99;101888.47;5053488;28;20128;-65